sensor_id;sensor_type;location;lat;lon;timestamp;pressure;altitude;pressure_sealevel;temperature;humidity
56270;BME280;42176;43.240;27.880;2023-05-23T00:00:53;99687.66;;;16.56;95.78
56270;BME280;42176;43.240;27.880;2023-05-23T00:03:19;99690.28;;;16.58;95.46
56270;BME280;42176;43.240;27.880;2023-05-23T00:05:47;99697.41;;;16.57;95.56
56270;BME280;42176;43.240;27.880;2023-05-23T00:08:12;99699.16;;;16.58;95.42
56270;BME280;42176;43.240;27.880;2023-05-23T00:10:38;99695.69;;;16.56;95.49
56270;BME280;42176;43.240;27.880;2023-05-23T00:13:03;99694.84;;;16.56;95.38
56270;BME280;42176;43.240;27.880;2023-05-23T00:15:29;99697.41;;;16.57;95.30
56270;BME280;42176;43.240;27.880;2023-05-23T00:17:55;99692.06;;;16.57;95.08
56270;BME280;42176;43.240;27.880;2023-05-23T00:20:20;99699.16;;;16.58;95.05
56270;BME280;42176;43.240;27.880;2023-05-23T00:22:47;99692.75;;;16.61;95.34
56270;BME280;42176;43.240;27.880;2023-05-23T00:25:13;99682.00;;;16.63;94.98
56270;BME280;42176;43.240;27.880;2023-05-23T00:27:38;99691.28;;;16.55;94.96
56270;BME280;42176;43.240;27.880;2023-05-23T00:30:04;99689.50;;;16.56;95.04
56270;BME280;42176;43.240;27.880;2023-05-23T00:32:30;99690.19;;;16.59;95.38
56270;BME280;42176;43.240;27.880;2023-05-23T00:34:55;99698.84;;;16.65;95.05
56270;BME280;42176;43.240;27.880;2023-05-23T00:37:21;99681.84;;;16.66;94.41
56270;BME280;42176;43.240;27.880;2023-05-23T00:39:47;99682.59;;;16.68;94.21
56270;BME280;42176;43.240;27.880;2023-05-23T00:42:12;99684.50;;;16.66;94.51
56270;BME280;42176;43.240;27.880;2023-05-23T00:44:38;99657.44;;;16.54;94.27
56270;BME280;42176;43.240;27.880;2023-05-23T00:47:05;99683.72;;;16.64;94.46
56270;BME280;42176;43.240;27.880;2023-05-23T00:49:31;99660.91;;;16.56;94.37
56270;BME280;42176;43.240;27.880;2023-05-23T00:51:57;99665.16;;;16.61;94.06
56270;BME280;42176;43.240;27.880;2023-05-23T00:54:28;99668.25;;;16.69;93.91
56270;BME280;42176;43.240;27.880;2023-05-23T00:56:55;99654.63;;;16.57;93.98
56270;BME280;42176;43.240;27.880;2023-05-23T00:59:25;99669.13;;;16.69;93.55
56270;BME280;42176;43.240;27.880;2023-05-23T01:01:51;99682.41;;;16.71;93.75
56270;BME280;42176;43.240;27.880;2023-05-23T01:04:19;99680.53;;;16.73;93.56
56270;BME280;42176;43.240;27.880;2023-05-23T01:06:45;99666.03;;;16.77;93.30
56270;BME280;42176;43.240;27.880;2023-05-23T01:09:17;99669.66;;;16.76;93.46
56270;BME280;42176;43.240;27.880;2023-05-23T01:14:25;99662.75;;;16.72;93.11
56270;BME280;42176;43.240;27.880;2023-05-23T01:16:58;99667.94;;;16.75;93.27
56270;BME280;42176;43.240;27.880;2023-05-23T01:22:42;99677.44;;;16.81;93.56
56270;BME280;42176;43.240;27.880;2023-05-23T01:25:22;99674.84;;;16.79;92.93
56270;BME280;42176;43.240;27.880;2023-05-23T01:27:54;99673.91;;;16.80;93.00
56270;BME280;42176;43.240;27.880;2023-05-23T01:30:22;99656.88;;;16.65;93.15
56270;BME280;42176;43.240;27.880;2023-05-23T01:32:50;99674.22;;;16.74;93.59
56270;BME280;42176;43.240;27.880;2023-05-23T01:35:22;99674.84;;;16.79;93.25
56270;BME280;42176;43.240;27.880;2023-05-23T01:37:48;99676.91;;;16.74;93.47
56270;BME280;42176;43.240;27.880;2023-05-23T01:40:14;99671.72;;;16.71;93.43
56270;BME280;42176;43.240;27.880;2023-05-23T01:42:39;99670.00;;;16.70;93.42
56270;BME280;42176;43.240;27.880;2023-05-23T01:45:06;99659.63;;;16.64;93.89
56270;BME280;42176;43.240;27.880;2023-05-23T01:47:32;99660.13;;;16.54;94.30
56270;BME280;42176;43.240;27.880;2023-05-23T01:49:58;99668.78;;;16.59;94.52
56270;BME280;42176;43.240;27.880;2023-05-23T01:52:25;99660.13;;;16.54;94.91
56270;BME280;42176;43.240;27.880;2023-05-23T01:54:50;99663.75;;;16.53;95.25
56270;BME280;42176;43.240;27.880;2023-05-23T01:57:18;99648.38;;;16.41;95.41
56270;BME280;42176;43.240;27.880;2023-05-23T01:59:44;99662.44;;;16.44;96.00
56270;BME280;42176;43.240;27.880;2023-05-23T02:02:10;99658.91;;;16.44;95.70
56270;BME280;42176;43.240;27.880;2023-05-23T02:04:35;99655.44;;;16.42;95.61
56270;BME280;42176;43.240;27.880;2023-05-23T02:07:01;99650.41;;;16.36;95.71
56270;BME280;42176;43.240;27.880;2023-05-23T02:09:26;99649.47;;;16.37;95.74
56270;BME280;42176;43.240;27.880;2023-05-23T02:11:52;99645.94;;;16.36;95.79
56270;BME280;42176;43.240;27.880;2023-05-23T02:14:18;99646.78;;;16.37;95.65
56270;BME280;42176;43.240;27.880;2023-05-23T02:16:43;99654.06;;;16.35;95.55
56270;BME280;42176;43.240;27.880;2023-05-23T02:19:09;99644.22;;;16.35;95.84
56270;BME280;42176;43.240;27.880;2023-05-23T02:21:35;99646.97;;;16.34;95.86
56270;BME280;42176;43.240;27.880;2023-05-23T02:24:01;99631.09;;;16.31;95.80
56270;BME280;42176;43.240;27.880;2023-05-23T02:26:26;99658.53;;;16.34;96.32
56270;BME280;42176;43.240;27.880;2023-05-23T02:28:52;99658.63;;;16.33;96.71
56270;BME280;42176;43.240;27.880;2023-05-23T02:31:17;99664.13;;;16.29;97.16
56270;BME280;42176;43.240;27.880;2023-05-23T02:33:43;99666.81;;;16.29;97.77
56270;BME280;42176;43.240;27.880;2023-05-23T02:36:08;99670.53;;;16.27;98.24
56270;BME280;42176;43.240;27.880;2023-05-23T02:38:34;99682.06;;;16.27;98.71
56270;BME280;42176;43.240;27.880;2023-05-23T02:40:59;99672.22;;;16.28;99.12
56270;BME280;42176;43.240;27.880;2023-05-23T02:43:25;99675.00;;;16.26;99.37
56270;BME280;42176;43.240;27.880;2023-05-23T02:45:50;99664.91;;;16.32;99.59
56270;BME280;42176;43.240;27.880;2023-05-23T02:48:16;99671.38;;;16.27;99.67
56270;BME280;42176;43.240;27.880;2023-05-23T02:50:41;99676.22;;;16.37;99.74
56270;BME280;42176;43.240;27.880;2023-05-23T02:53:07;99679.78;;;16.37;99.54
56270;BME280;42176;43.240;27.880;2023-05-23T02:55:32;99673.38;;;16.40;99.43
56270;BME280;42176;43.240;27.880;2023-05-23T02:57:58;99677.00;;;16.39;98.97
56270;BME280;42176;43.240;27.880;2023-05-23T03:00:24;99674.00;;;16.45;99.00
56270;BME280;42176;43.240;27.880;2023-05-23T03:02:49;99667.19;;;16.39;98.63
56270;BME280;42176;43.240;27.880;2023-05-23T03:05:15;99674.97;;;16.44;98.30
56270;BME280;42176;43.240;27.880;2023-05-23T03:07:41;99688.97;;;16.49;98.19
56270;BME280;42176;43.240;27.880;2023-05-23T03:10:07;99683.59;;;16.49;98.17
56270;BME280;42176;43.240;27.880;2023-05-23T03:12:32;99688.75;;;16.52;98.23
56270;BME280;42176;43.240;27.880;2023-05-23T03:14:58;99681.63;;;16.53;98.04
56270;BME280;42176;43.240;27.880;2023-05-23T03:17:24;99680.00;;;16.50;98.25
56270;BME280;42176;43.240;27.880;2023-05-23T03:19:50;99676.53;;;16.48;98.25
56270;BME280;42176;43.240;27.880;2023-05-23T03:22:15;99683.50;;;16.51;98.37
56270;BME280;42176;43.240;27.880;2023-05-23T03:24:41;99682.31;;;16.56;98.35
56270;BME280;42176;43.240;27.880;2023-05-23T03:27:07;99681.28;;;16.59;98.01
56270;BME280;42176;43.240;27.880;2023-05-23T03:29:32;99681.91;;;16.64;97.91
56270;BME280;42176;43.240;27.880;2023-05-23T03:31:58;99698.16;;;16.77;97.32
56270;BME280;42176;43.240;27.880;2023-05-23T03:34:23;99683.31;;;16.87;96.34
56270;BME280;42176;43.240;27.880;2023-05-23T03:36:51;99697.19;;;16.96;95.67
56270;BME280;42176;43.240;27.880;2023-05-23T03:39:16;99696.81;;;17.02;95.02
56270;BME280;42176;43.240;27.880;2023-05-23T03:41:42;99693.19;;;17.03;94.59
56270;BME280;42176;43.240;27.880;2023-05-23T03:44:07;99699.22;;;17.07;94.35
56270;BME280;42176;43.240;27.880;2023-05-23T03:46:33;99692.84;;;17.09;93.77
56270;BME280;42176;43.240;27.880;2023-05-23T03:48:58;99704.41;;;17.10;93.41
56270;BME280;42176;43.240;27.880;2023-05-23T03:51:23;99696.38;;;17.10;93.66
56270;BME280;42176;43.240;27.880;2023-05-23T03:53:49;99696.31;;;17.11;93.52
56270;BME280;42176;43.240;27.880;2023-05-23T03:56:14;99703.41;;;17.12;93.33
56270;BME280;42176;43.240;27.880;2023-05-23T03:58:40;99706.94;;;17.13;93.33
56270;BME280;42176;43.240;27.880;2023-05-23T04:01:05;99702.78;;;17.07;93.17
56270;BME280;42176;43.240;27.880;2023-05-23T04:03:31;99703.41;;;17.12;93.31
56270;BME280;42176;43.240;27.880;2023-05-23T04:05:58;99705.47;;;17.07;93.49
56270;BME280;42176;43.240;27.880;2023-05-23T04:08:25;99698.38;;;17.06;93.81
56270;BME280;42176;43.240;27.880;2023-05-23T04:10:50;99716.00;;;17.10;93.90
56270;BME280;42176;43.240;27.880;2023-05-23T04:13:16;99707.19;;;17.08;93.72
56270;BME280;42176;43.240;27.880;2023-05-23T04:15:41;99704.94;;;17.16;93.15
56270;BME280;42176;43.240;27.880;2023-05-23T04:18:07;99707.03;;;17.11;93.19
56270;BME280;42176;43.240;27.880;2023-05-23T04:20:34;99704.16;;;17.14;93.04
56270;BME280;42176;43.240;27.880;2023-05-23T04:22:59;99705.47;;;17.07;93.40
56270;BME280;42176;43.240;27.880;2023-05-23T04:25:25;99709.94;;;17.07;93.59
56270;BME280;42176;43.240;27.880;2023-05-23T04:27:51;99705.09;;;17.13;92.89
56270;BME280;42176;43.240;27.880;2023-05-23T04:30:18;99706.34;;;17.24;95.02
56270;BME280;42176;43.240;27.880;2023-05-23T04:32:44;99710.56;;;17.28;91.76
56270;BME280;42176;43.240;27.880;2023-05-23T04:35:10;99711.53;;;17.27;91.67
56270;BME280;42176;43.240;27.880;2023-05-23T04:37:36;99701.56;;;17.29;91.45
56270;BME280;42176;43.240;27.880;2023-05-23T04:40:02;99725.88;;;17.26;91.59
56270;BME280;42176;43.240;27.880;2023-05-23T04:42:28;99721.47;;;17.25;91.89
56270;BME280;42176;43.240;27.880;2023-05-23T04:44:53;99726.81;;;17.25;92.13
56270;BME280;42176;43.240;27.880;2023-05-23T04:47:21;99724.91;;;17.27;92.26
56270;BME280;42176;43.240;27.880;2023-05-23T04:49:49;99733.81;;;17.43;91.52
56270;BME280;42176;43.240;27.880;2023-05-23T04:52:14;99727.56;;;17.59;90.37
56270;BME280;42176;43.240;27.880;2023-05-23T04:54:43;99740.81;;;17.76;88.81
56270;BME280;42176;43.240;27.880;2023-05-23T04:57:10;99729.41;;;17.89;88.07
56270;BME280;42176;43.240;27.880;2023-05-23T04:59:37;99750.66;;;18.08;86.20
56270;BME280;42176;43.240;27.880;2023-05-23T05:02:02;99738.09;;;18.08;85.41
56270;BME280;42176;43.240;27.880;2023-05-23T05:04:29;99740.31;;;18.16;85.26
56270;BME280;42176;43.240;27.880;2023-05-23T05:06:55;99729.13;;;18.24;85.31
56270;BME280;42176;43.240;27.880;2023-05-23T05:09:21;99732.41;;;18.29;84.29
56270;BME280;42176;43.240;27.880;2023-05-23T05:11:47;99736.03;;;18.28;84.02
56270;BME280;42176;43.240;27.880;2023-05-23T05:14:12;99738.72;;;18.28;83.68
56270;BME280;42176;43.240;27.880;2023-05-23T05:16:38;99730.84;;;18.25;84.22
56270;BME280;42176;43.240;27.880;2023-05-23T05:19:04;99733.00;;;18.34;83.50
56270;BME280;42176;43.240;27.880;2023-05-23T05:21:29;99733.78;;;18.36;83.27
56270;BME280;42176;43.240;27.880;2023-05-23T05:23:55;99744.78;;;18.46;82.47
56270;BME280;42176;43.240;27.880;2023-05-23T05:26:22;99741.84;;;18.51;81.78
56270;BME280;42176;43.240;27.880;2023-05-23T05:28:47;99736.66;;;18.48;81.62
56270;BME280;42176;43.240;27.880;2023-05-23T05:31:13;99759.38;;;18.42;81.58
56270;BME280;42176;43.240;27.880;2023-05-23T05:33:40;99751.22;;;18.44;82.17
56270;BME280;42176;43.240;27.880;2023-05-23T05:36:06;99754.38;;;18.50;81.04
56270;BME280;42176;43.240;27.880;2023-05-23T05:38:32;99755.09;;;18.68;80.15
56270;BME280;42176;43.240;27.880;2023-05-23T05:40:58;99756.78;;;18.69;80.15
56270;BME280;42176;43.240;27.880;2023-05-23T05:43:24;99761.69;;;18.77;80.00
56270;BME280;42176;43.240;27.880;2023-05-23T05:45:50;99774.25;;;18.77;79.99
56270;BME280;42176;43.240;27.880;2023-05-23T05:48:16;99761.78;;;18.76;79.97
56270;BME280;42176;43.240;27.880;2023-05-23T05:50:42;99761.72;;;18.92;79.70
56270;BME280;42176;43.240;27.880;2023-05-23T05:53:10;99765.06;;;19.10;78.54
56270;BME280;42176;43.240;27.880;2023-05-23T05:55:36;99761.38;;;19.40;77.27
56270;BME280;42176;43.240;27.880;2023-05-23T05:58:02;99773.97;;;19.67;75.56
56270;BME280;42176;43.240;27.880;2023-05-23T06:00:28;99770.69;;;20.03;73.62
56270;BME280;42176;43.240;27.880;2023-05-23T06:02:53;99757.09;;;20.58;71.39
56270;BME280;42176;43.240;27.880;2023-05-23T06:05:22;99755.28;;;20.84;69.00
56270;BME280;42176;43.240;27.880;2023-05-23T06:07:48;99754.88;;;21.28;66.00
56270;BME280;42176;43.240;27.880;2023-05-23T06:10:14;99745.00;;;21.16;66.80
56270;BME280;42176;43.240;27.880;2023-05-23T06:12:40;99756.00;;;21.12;66.49
56270;BME280;42176;43.240;27.880;2023-05-23T06:15:06;99773.81;;;20.76;68.55
56270;BME280;42176;43.240;27.880;2023-05-23T06:17:32;99772.09;;;20.75;68.71
56270;BME280;42176;43.240;27.880;2023-05-23T06:19:57;99758.81;;;20.59;69.10
56270;BME280;42176;43.240;27.880;2023-05-23T06:22:23;99756.09;;;20.72;69.19
56270;BME280;42176;43.240;27.880;2023-05-23T06:24:48;99764.84;;;20.63;69.42
56270;BME280;42176;43.240;27.880;2023-05-23T06:27:14;99767.97;;;20.69;68.93
56270;BME280;42176;43.240;27.880;2023-05-23T06:29:39;99768.31;;;20.91;68.10
56270;BME280;42176;43.240;27.880;2023-05-23T06:32:05;99765.22;;;21.71;63.84
56270;BME280;42176;43.240;27.880;2023-05-23T06:34:31;99765.97;;;21.36;65.01
56270;BME280;42176;43.240;27.880;2023-05-23T06:36:56;99761.19;;;21.16;65.52
56270;BME280;42176;43.240;27.880;2023-05-23T06:39:21;99766.03;;;20.72;67.55
56270;BME280;42176;43.240;27.880;2023-05-23T06:41:47;99754.63;;;20.55;68.06
56270;BME280;42176;43.240;27.880;2023-05-23T06:44:13;99768.72;;;20.46;68.67
56270;BME280;42176;43.240;27.880;2023-05-23T06:46:38;99767.09;;;20.43;69.48
56270;BME280;42176;43.240;27.880;2023-05-23T06:49:04;99767.84;;;20.45;69.30
56270;BME280;42176;43.240;27.880;2023-05-23T06:51:30;99758.59;;;20.49;69.44
56270;BME280;42176;43.240;27.880;2023-05-23T06:53:55;99769.16;;;20.52;69.86
56270;BME280;42176;43.240;27.880;2023-05-23T06:56:24;99766.22;;;20.56;69.74
56270;BME280;42176;43.240;27.880;2023-05-23T06:58:50;99770.56;;;20.58;69.12
56270;BME280;42176;43.240;27.880;2023-05-23T07:01:15;99765.06;;;20.60;68.65
56270;BME280;42176;43.240;27.880;2023-05-23T07:03:41;99766.16;;;20.70;68.92
56270;BME280;42176;43.240;27.880;2023-05-23T07:06:08;99768.63;;;20.99;67.57
56270;BME280;42176;43.240;27.880;2023-05-23T07:08:34;99759.97;;;21.57;64.16
56270;BME280;42176;43.240;27.880;2023-05-23T07:11:00;99764.03;;;21.75;63.09
56270;BME280;42176;43.240;27.880;2023-05-23T07:13:25;99759.69;;;22.80;59.01
56270;BME280;42176;43.240;27.880;2023-05-23T07:15:51;99766.19;;;23.34;55.68
56270;BME280;42176;43.240;27.880;2023-05-23T07:18:16;99762.41;;;23.03;56.20
56270;BME280;42176;43.240;27.880;2023-05-23T07:20:42;99751.56;;;22.91;56.59
56270;BME280;42176;43.240;27.880;2023-05-23T07:23:08;99753.06;;;22.84;57.44
56270;BME280;42176;43.240;27.880;2023-05-23T07:25:34;99743.97;;;23.31;55.73
56270;BME280;42176;43.240;27.880;2023-05-23T07:28:00;99752.16;;;23.84;54.57
56270;BME280;42176;43.240;27.880;2023-05-23T07:30:25;99748.78;;;24.67;51.70
56270;BME280;42176;43.240;27.880;2023-05-23T07:32:50;99747.53;;;23.75;54.11
56270;BME280;42176;43.240;27.880;2023-05-23T07:35:19;99749.00;;;23.01;56.17
56270;BME280;42176;43.240;27.880;2023-05-23T07:37:48;99745.44;;;22.66;57.88
56270;BME280;42176;43.240;27.880;2023-05-23T07:40:13;99754.34;;;22.44;59.30
56270;BME280;42176;43.240;27.880;2023-05-23T07:42:39;99754.22;;;22.46;59.53
56270;BME280;42176;43.240;27.880;2023-05-23T07:45:05;99757.38;;;22.40;60.12
56270;BME280;42176;43.240;27.880;2023-05-23T07:47:30;99756.09;;;22.21;61.12
56270;BME280;42176;43.240;27.880;2023-05-23T07:49:56;99756.41;;;22.41;60.98
56270;BME280;42176;43.240;27.880;2023-05-23T07:52:21;99758.19;;;22.64;60.06
56270;BME280;42176;43.240;27.880;2023-05-23T07:54:47;99751.31;;;22.60;59.53
56270;BME280;42176;43.240;27.880;2023-05-23T07:57:12;99756.09;;;22.57;59.90
56270;BME280;42176;43.240;27.880;2023-05-23T07:59:39;99755.50;;;22.17;61.47
56270;BME280;42176;43.240;27.880;2023-05-23T08:02:05;99770.59;;;22.20;62.12
56270;BME280;42176;43.240;27.880;2023-05-23T08:04:31;99772.75;;;22.15;62.25
56270;BME280;42176;43.240;27.880;2023-05-23T08:06:58;99763.13;;;21.99;62.84
56270;BME280;42176;43.240;27.880;2023-05-23T08:09:24;99769.81;;;22.07;62.51
56270;BME280;42176;43.240;27.880;2023-05-23T08:11:50;99757.06;;;22.09;62.24
56270;BME280;42176;43.240;27.880;2023-05-23T08:14:15;99764.72;;;22.26;61.08
56270;BME280;42176;43.240;27.880;2023-05-23T08:16:40;99758.59;;;22.35;60.90
56270;BME280;42176;43.240;27.880;2023-05-23T08:19:06;99747.47;;;22.51;60.68
56270;BME280;42176;43.240;27.880;2023-05-23T08:21:32;99719.28;;;22.90;58.91
56270;BME280;42176;43.240;27.880;2023-05-23T08:23:57;99748.38;;;23.20;58.17
56270;BME280;42176;43.240;27.880;2023-05-23T08:26:23;99739.50;;;23.41;57.38
56270;BME280;42176;43.240;27.880;2023-05-23T08:28:48;99740.41;;;23.74;57.20
56270;BME280;42176;43.240;27.880;2023-05-23T08:31:14;99750.81;;;23.90;54.92
56270;BME280;42176;43.240;27.880;2023-05-23T08:33:39;99743.78;;;23.99;54.68
56270;BME280;42176;43.240;27.880;2023-05-23T08:36:05;99743.94;;;24.18;54.66
56270;BME280;42176;43.240;27.880;2023-05-23T08:38:30;99735.34;;;24.56;53.40
56270;BME280;42176;43.240;27.880;2023-05-23T08:40:59;99738.34;;;24.84;52.04
56270;BME280;42176;43.240;27.880;2023-05-23T08:43:25;99735.53;;;24.43;51.32
56270;BME280;42176;43.240;27.880;2023-05-23T08:45:51;99741.44;;;24.27;51.74
56270;BME280;42176;43.240;27.880;2023-05-23T08:48:18;99738.09;;;24.02;51.46
56270;BME280;42176;43.240;27.880;2023-05-23T08:50:45;99736.38;;;24.22;52.23
56270;BME280;42176;43.240;27.880;2023-05-23T08:53:14;99743.06;;;23.97;53.79
56270;BME280;42176;43.240;27.880;2023-05-23T08:55:45;99758.13;;;24.11;52.34
56270;BME280;42176;43.240;27.880;2023-05-23T09:00:41;99742.38;;;24.89;51.66
56270;BME280;42176;43.240;27.880;2023-05-23T09:03:08;99734.75;;;24.73;51.19
56270;BME280;42176;43.240;27.880;2023-05-23T09:05:34;99748.19;;;25.16;49.95
56270;BME280;42176;43.240;27.880;2023-05-23T09:08:00;99720.53;;;25.32;50.15
56270;BME280;42176;43.240;27.880;2023-05-23T09:10:26;99747.34;;;24.63;52.05
56270;BME280;42176;43.240;27.880;2023-05-23T09:12:54;99737.47;;;24.73;51.65
56270;BME280;42176;43.240;27.880;2023-05-23T09:15:20;99748.03;;;24.34;52.10
56270;BME280;42176;43.240;27.880;2023-05-23T09:17:46;99740.88;;;24.33;53.03
56270;BME280;42176;43.240;27.880;2023-05-23T09:20:14;99742.59;;;24.34;52.85
56270;BME280;42176;43.240;27.880;2023-05-23T09:22:40;99732.19;;;24.08;54.88
56270;BME280;42176;43.240;27.880;2023-05-23T09:25:06;99744.19;;;23.50;58.26
56270;BME280;42176;43.240;27.880;2023-05-23T09:27:31;99740.31;;;23.64;58.13
56270;BME280;42176;43.240;27.880;2023-05-23T09:30:04;99735.94;;;23.52;59.13
56270;BME280;42176;43.240;27.880;2023-05-23T09:32:30;99735.78;;;23.65;57.62
56270;BME280;42176;43.240;27.880;2023-05-23T09:34:58;99738.31;;;23.34;58.11
56270;BME280;42176;43.240;27.880;2023-05-23T09:37:42;99735.69;;;23.55;58.42
56270;BME280;42176;43.240;27.880;2023-05-23T09:40:11;99741.69;;;23.59;56.94
56270;BME280;42176;43.240;27.880;2023-05-23T09:42:45;99752.94;;;23.75;54.26
56270;BME280;42176;43.240;27.880;2023-05-23T09:45:15;99731.59;;;24.05;53.38
56270;BME280;42176;43.240;27.880;2023-05-23T09:47:52;99733.34;;;24.15;53.56
56270;BME280;42176;43.240;27.880;2023-05-23T09:50:19;99732.69;;;24.02;52.84
56270;BME280;42176;43.240;27.880;2023-05-23T09:52:45;99734.75;;;24.10;53.47
56270;BME280;42176;43.240;27.880;2023-05-23T09:55:11;99724.72;;;24.22;52.54
56270;BME280;42176;43.240;27.880;2023-05-23T09:57:39;99727.34;;;24.12;53.37
56270;BME280;42176;43.240;27.880;2023-05-23T10:00:06;99739.19;;;23.67;54.61
56270;BME280;42176;43.240;27.880;2023-05-23T10:05:44;99754.22;;;21.74;70.66
56270;BME280;42176;43.240;27.880;2023-05-23T10:08:26;99754.28;;;19.93;87.10
56270;BME280;42176;43.240;27.880;2023-05-23T10:13:21;99763.66;;;18.30;100.00
56270;BME280;42176;43.240;27.880;2023-05-23T10:15:58;99777.94;;;17.68;100.00
56270;BME280;42176;43.240;27.880;2023-05-23T10:18:28;99767.59;;;17.46;100.00
56270;BME280;42176;43.240;27.880;2023-05-23T10:20:57;99764.91;;;17.30;100.00
56270;BME280;42176;43.240;27.880;2023-05-23T10:23:27;99778.03;;;17.02;100.00
56270;BME280;42176;43.240;27.880;2023-05-23T10:25:54;99762.56;;;16.90;100.00
56270;BME280;42176;43.240;27.880;2023-05-23T10:28:20;99783.28;;;16.86;100.00
56270;BME280;42176;43.240;27.880;2023-05-23T10:30:45;99790.53;;;16.84;100.00
56270;BME280;42176;43.240;27.880;2023-05-23T10:33:13;99782.97;;;16.93;100.00
56270;BME280;42176;43.240;27.880;2023-05-23T10:38:40;99785.53;;;16.78;100.00
56270;BME280;42176;43.240;27.880;2023-05-23T10:41:17;99799.78;;;16.61;100.00
56270;BME280;42176;43.240;27.880;2023-05-23T10:46:58;99866.94;;;15.83;100.00
56270;BME280;42176;43.240;27.880;2023-05-23T10:49:51;99892.44;;;15.52;100.00
56270;BME280;42176;43.240;27.880;2023-05-23T10:52:18;99905.56;;;15.37;100.00
56270;BME280;42176;43.240;27.880;2023-05-23T10:54:49;99941.09;;;15.40;100.00
56270;BME280;42176;43.240;27.880;2023-05-23T10:57:18;99962.50;;;15.38;100.00
56270;BME280;42176;43.240;27.880;2023-05-23T10:59:45;99970.75;;;15.33;100.00
56270;BME280;42176;43.240;27.880;2023-05-23T11:02:17;99991.69;;;15.43;100.00
56270;BME280;42176;43.240;27.880;2023-05-23T11:04:43;99984.44;;;15.86;100.00
56270;BME280;42176;43.240;27.880;2023-05-23T11:07:29;99945.78;;;15.53;100.00
56270;BME280;42176;43.240;27.880;2023-05-23T11:10:11;99934.59;;;15.45;100.00
56270;BME280;42176;43.240;27.880;2023-05-23T11:12:40;99942.38;;;15.71;100.00
56270;BME280;42176;43.240;27.880;2023-05-23T11:17:49;99924.69;;;16.06;100.00
56270;BME280;42176;43.240;27.880;2023-05-23T11:20:15;99912.53;;;16.36;100.00
56270;BME280;42176;43.240;27.880;2023-05-23T11:23:07;99904.53;;;16.88;100.00
56270;BME280;42176;43.240;27.880;2023-05-23T11:25:47;99883.16;;;17.22;100.00
56270;BME280;42176;43.240;27.880;2023-05-23T11:28:13;99866.41;;;17.68;100.00
56270;BME280;42176;43.240;27.880;2023-05-23T11:30:39;99851.19;;;17.53;100.00
56270;BME280;42176;43.240;27.880;2023-05-23T11:33:12;99845.66;;;17.56;100.00
56270;BME280;42176;43.240;27.880;2023-05-23T11:35:45;99842.03;;;17.89;100.00
56270;BME280;42176;43.240;27.880;2023-05-23T11:38:13;99838.72;;;17.84;100.00
56270;BME280;42176;43.240;27.880;2023-05-23T11:40:42;99822.97;;;18.09;100.00
56270;BME280;42176;43.240;27.880;2023-05-23T11:43:09;99821.41;;;18.52;100.00
56270;BME280;42176;43.240;27.880;2023-05-23T11:45:37;99819.13;;;18.75;100.00
56270;BME280;42176;43.240;27.880;2023-05-23T11:48:12;99815.63;;;18.44;100.00
56270;BME280;42176;43.240;27.880;2023-05-23T11:50:50;99809.28;;;18.45;100.00
56270;BME280;42176;43.240;27.880;2023-05-23T11:53:17;99814.41;;;18.78;100.00
56270;BME280;42176;43.240;27.880;2023-05-23T11:55:52;99794.88;;;18.91;100.00
56270;BME280;42176;43.240;27.880;2023-05-23T11:58:25;99798.78;;;18.85;100.00
56270;BME280;42176;43.240;27.880;2023-05-23T12:00:50;99799.50;;;18.89;100.00
56270;BME280;42176;43.240;27.880;2023-05-23T12:03:16;99799.78;;;18.84;100.00
56270;BME280;42176;43.240;27.880;2023-05-23T12:05:42;99802.06;;;18.90;100.00
56270;BME280;42176;43.240;27.880;2023-05-23T12:08:11;99792.50;;;19.00;100.00
56270;BME280;42176;43.240;27.880;2023-05-23T12:10:50;99797.41;;;18.34;100.00
56270;BME280;42176;43.240;27.880;2023-05-23T12:13:15;99789.44;;;18.02;100.00
56270;BME280;42176;43.240;27.880;2023-05-23T12:15:41;99784.75;;;17.90;100.00
56270;BME280;42176;43.240;27.880;2023-05-23T12:18:06;99800.16;;;17.70;100.00
56270;BME280;42176;43.240;27.880;2023-05-23T12:20:32;99794.28;;;17.31;100.00
56270;BME280;42176;43.240;27.880;2023-05-23T12:23:03;99794.69;;;17.08;100.00
56270;BME280;42176;43.240;27.880;2023-05-23T12:25:37;99797.03;;;17.14;100.00
56270;BME280;42176;43.240;27.880;2023-05-23T12:28:04;99797.13;;;17.12;100.00
56270;BME280;42176;43.240;27.880;2023-05-23T12:30:40;99799.28;;;17.22;100.00
56270;BME280;42176;43.240;27.880;2023-05-23T12:33:09;99803.63;;;17.56;100.00
56270;BME280;42176;43.240;27.880;2023-05-23T12:35:36;99796.16;;;17.77;100.00
56270;BME280;42176;43.240;27.880;2023-05-23T12:38:04;99784.06;;;18.02;100.00
56270;BME280;42176;43.240;27.880;2023-05-23T12:40:31;99780.88;;;18.26;100.00
56270;BME280;42176;43.240;27.880;2023-05-23T12:42:57;99774.41;;;18.45;100.00
56270;BME280;42176;43.240;27.880;2023-05-23T12:45:23;99773.84;;;18.54;100.00
56270;BME280;42176;43.240;27.880;2023-05-23T12:47:49;99748.94;;;18.66;100.00
56270;BME280;42176;43.240;27.880;2023-05-23T12:50:15;99760.81;;;18.91;100.00
56270;BME280;42176;43.240;27.880;2023-05-23T12:52:40;99758.25;;;18.90;100.00
56270;BME280;42176;43.240;27.880;2023-05-23T12:55:09;99757.19;;;19.07;100.00
56270;BME280;42176;43.240;27.880;2023-05-23T12:57:34;99761.00;;;19.17;100.00
56270;BME280;42176;43.240;27.880;2023-05-23T13:00:00;99752.66;;;18.93;100.00
56270;BME280;42176;43.240;27.880;2023-05-23T13:02:27;99765.06;;;18.81;100.00
56270;BME280;42176;43.240;27.880;2023-05-23T13:04:53;99755.66;;;18.88;100.00
56270;BME280;42176;43.240;27.880;2023-05-23T13:07:18;99757.84;;;18.67;100.00
56270;BME280;42176;43.240;27.880;2023-05-23T13:09:44;99759.84;;;18.49;100.00